createdAt,value
2022-11-02T00:04:49.844Z,75.15
2022-11-02T00:09:52.434Z,75.38
2022-11-02T00:14:54.995Z,76.22
2022-11-02T00:19:58.178Z,75.63
2022-11-02T00:25:04.334Z,75.63
2022-11-02T00:30:07.583Z,75.85
2022-11-02T00:35:10.439Z,75.87
2022-11-02T00:40:13.072Z,75.91
2022-11-02T00:45:15.741Z,75.63
2022-11-02T00:50:18.570Z,75.26
2022-11-02T00:55:21.746Z,75.68
2022-11-02T01:00:24.707Z,75.28
2022-11-02T01:05:27.690Z,74.99
2022-11-02T01:10:30.478Z,75.27
2022-11-02T01:15:33.028Z,75.09
2022-11-02T01:20:36.340Z,74.73
2022-11-02T01:25:38.906Z,74.98
2022-11-02T01:30:41.646Z,75.17
2022-11-02T01:35:44.145Z,75.67
2022-11-02T01:40:48.068Z,76.26
2022-11-02T01:46:02.010Z,76.20
2022-11-02T01:51:11.331Z,76.57
2022-11-02T01:56:18.108Z,77.07
2022-11-02T02:01:22.135Z,76.51
2022-11-02T02:06:27.534Z,76.79
2022-11-02T02:11:36.299Z,77.69
2022-11-02T02:16:50.709Z,77.92
2022-11-02T02:22:20.956Z,78.09
2022-11-02T02:27:32.234Z,78.30
2022-11-02T02:32:49.435Z,80.27
2022-11-02T02:37:59.534Z,80.60
2022-11-02T02:43:49.458Z,79.62
2022-11-02T02:48:55.907Z,79.00
2022-11-02T02:54:03.482Z,79.27
2022-11-02T02:59:22.851Z,79.66
2022-11-02T03:04:26.031Z,79.45
2022-11-02T03:09:50.017Z,80.22
2022-11-02T03:15:05.006Z,80.15
2022-11-02T03:20:10.553Z,79.85
2022-11-02T03:25:20.799Z,79.92
2022-11-02T03:30:28.447Z,80.39
2022-11-02T03:35:35.611Z,80.71
2022-11-02T03:40:49.131Z,82.78
2022-11-02T03:45:57.192Z,83.03
2022-11-02T03:51:07.006Z,82.70
2022-11-02T03:56:20.145Z,82.29
2022-11-02T04:01:23.236Z,83.53
2022-11-02T04:06:27.431Z,84.00
2022-11-02T04:11:49.717Z,83.23
2022-11-02T04:17:15.091Z,82.88
2022-11-02T04:22:41.510Z,81.59
2022-11-02T04:27:53.155Z,82.93
2022-11-02T04:33:18.983Z,82.29
2022-11-02T04:38:42.912Z,81.85
2022-11-02T04:43:53.796Z,82.63
2022-11-02T04:48:56.611Z,83.16
2022-11-02T04:54:00.494Z,84.00
2022-11-02T04:59:04.754Z,83.62
2022-11-02T05:04:10.991Z,83.73
2022-11-02T05:09:14.927Z,83.29
2022-11-02T05:14:21.054Z,84.08
2022-11-02T05:19:23.890Z,84.35
2022-11-02T05:24:26.590Z,84.36
2022-11-02T05:29:30.108Z,84.44
2022-11-02T05:34:33.335Z,83.66
2022-11-02T05:39:37.353Z,84.12
2022-11-02T05:44:40.268Z,84.09
2022-11-02T05:49:42.892Z,84.56
2022-11-02T05:54:45.467Z,84.08
2022-11-02T05:59:49.446Z,83.06
2022-11-02T06:04:52.291Z,83.69
2022-11-02T06:09:54.936Z,83.51
2022-11-02T06:14:57.507Z,84.33
2022-11-02T06:20:00.035Z,83.74
2022-11-02T06:25:02.685Z,83.68
2022-11-02T06:30:07.319Z,84.06
2022-11-02T06:35:10.362Z,84.07
2022-11-02T06:40:14.423Z,84.21
2022-11-02T06:45:17.298Z,84.35
2022-11-02T06:50:20.214Z,83.28
2022-11-02T06:55:22.944Z,83.59
2022-11-02T07:00:25.681Z,82.94
2022-11-02T07:05:28.731Z,82.32
2022-11-02T07:10:31.972Z,81.89
2022-11-02T07:15:34.547Z,81.59
2022-11-02T07:20:37.318Z,80.60
2022-11-02T07:25:39.917Z,80.20
2022-11-02T07:30:42.837Z,80.63
2022-11-02T07:35:45.388Z,80.11
2022-11-02T07:40:52.783Z,80.06
2022-11-02T07:45:56.235Z,79.63
2022-11-02T07:51:02.078Z,80.13
2022-11-02T07:56:05.320Z,80.00
2022-11-02T08:01:08.003Z,80.07
2022-11-02T08:06:10.542Z,81.21
2022-11-02T08:11:13.166Z,80.98
2022-11-02T08:16:16.015Z,80.87
2022-11-02T08:21:18.578Z,81.11
2022-11-02T08:26:21.544Z,82.18
2022-11-02T08:31:24.241Z,81.12
2022-11-02T08:36:26.818Z,81.39
2022-11-02T08:41:29.756Z,80.47
2022-11-02T08:46:32.341Z,80.40
2022-11-02T08:51:34.810Z,79.31
2022-11-02T08:56:37.458Z,79.34
2022-11-02T09:01:40.324Z,79.08
2022-11-02T09:06:43.138Z,80.25
2022-11-02T09:11:45.818Z,80.12
2022-11-02T09:16:48.488Z,80.49
2022-11-02T09:21:51.680Z,79.36
2022-11-02T09:26:54.304Z,79.99
2022-11-02T09:31:56.864Z,80.27
2022-11-02T09:36:59.478Z,79.49
2022-11-02T09:42:13.918Z,79.25
2022-11-02T09:48:02.975Z,78.87
2022-11-02T09:52:43.562Z,78.15
2022-11-02T09:57:51.107Z,78.37
2022-11-02T10:03:12.459Z,78.99
2022-11-02T10:08:24.443Z,78.56
2022-11-02T10:13:42.277Z,77.69
2022-11-02T10:18:49.547Z,77.60
2022-11-02T10:23:54.933Z,78.03
2022-11-02T10:29:01.914Z,78.03
2022-11-02T10:34:24.537Z,78.07
2022-11-02T10:39:39.651Z,78.47
2022-11-02T10:45:11.579Z,78.52
2022-11-02T10:50:37.162Z,78.72
2022-11-02T10:55:55.575Z,78.94
2022-11-02T11:01:12.736Z,78.82
2022-11-02T11:06:15.538Z,78.59
2022-11-02T11:11:24.511Z,78.50
2022-11-02T11:16:50.160Z,78.30
2022-11-02T11:21:53.586Z,78.21
2022-11-02T11:27:12.135Z,78.35
2022-11-02T11:32:22.751Z,78.25
2022-11-02T11:37:28.642Z,79.12
2022-11-02T11:42:35.153Z,79.36
2022-11-02T11:47:40.561Z,78.91
2022-11-02T11:52:44.641Z,79.15
2022-11-02T11:57:47.713Z,79.26
2022-11-02T12:03:07.108Z,78.93
2022-11-02T12:08:16.034Z,79.82
2022-11-02T12:13:27.505Z,80.20
2022-11-02T12:18:42.108Z,79.92
2022-11-02T12:24:05.966Z,79.95
2022-11-02T12:29:41.330Z,80.42
2022-11-02T12:35:27.767Z,79.33
2022-11-02T12:41:09.719Z,79.96
2022-11-02T12:46:38.452Z,80.24
2022-11-02T12:51:52.890Z,79.99
2022-11-02T12:56:55.814Z,79.92
2022-11-02T13:07:19.632Z,78.87
2022-11-02T13:12:24.817Z,79.15
2022-11-02T13:17:45.999Z,78.58
2022-11-02T13:22:55.721Z,78.66
2022-11-02T13:28:06.101Z,77.98
2022-11-02T13:33:16.499Z,78.41
2022-11-02T13:38:55.690Z,78.35
2022-11-02T13:44:09.804Z,78.97
2022-11-02T13:49:17.129Z,78.99
2022-11-02T13:54:30.690Z,79.25
2022-11-02T13:59:43.264Z,80.07
2022-11-02T14:04:48.747Z,79.79
2022-11-02T14:09:58.869Z,79.33
2022-11-02T14:15:13.634Z,78.89
2022-11-02T14:20:35.818Z,79.24
2022-11-02T14:25:51.881Z,80.27
2022-11-02T14:31:03.685Z,80.73
2022-11-02T14:36:19.701Z,81.15
2022-11-02T14:41:37.183Z,81.62
2022-11-02T14:47:07.387Z,81.23
2022-11-02T14:52:16.220Z,80.29
2022-11-02T14:57:40.221Z,80.42
2022-11-02T15:02:52.646Z,80.63
2022-11-02T15:08:02.323Z,80.08
2022-11-02T15:13:20.223Z,80.46
2022-11-02T15:18:31.848Z,79.85
2022-11-02T15:23:43.428Z,80.20
2022-11-02T15:28:50.068Z,80.03
2022-11-02T15:33:59.442Z,80.72
2022-11-02T15:39:10.698Z,80.45
2022-11-02T15:44:31.564Z,79.97
2022-11-02T15:50:05.385Z,80.32
2022-11-02T15:55:11.043Z,79.94
2022-11-02T16:00:23.694Z,79.54
2022-11-02T16:05:29.690Z,79.47
2022-11-02T16:10:37.664Z,79.81
2022-11-02T16:15:43.783Z,80.55
2022-11-02T16:20:46.739Z,79.79
2022-11-02T16:25:50.978Z,80.61
2022-11-02T16:31:19.253Z,79.95
2022-11-02T16:36:23.929Z,80.01
2022-11-02T16:41:32.304Z,80.92
2022-11-02T16:46:40.723Z,80.64
2022-11-02T16:51:58.372Z,81.02
2022-11-02T16:57:11.449Z,80.61
2022-11-02T17:02:16.016Z,80.42
2022-11-02T17:07:32.157Z,80.13
2022-11-02T17:12:38.339Z,80.77
2022-11-02T17:17:40.998Z,80.88
2022-11-02T17:23:01.412Z,82.65
2022-11-02T17:28:41.865Z,82.51
2022-11-02T17:33:45.204Z,82.86
2022-11-02T17:38:47.939Z,83.00
2022-11-02T17:43:50.476Z,81.89
2022-11-02T17:48:53.002Z,80.92
2022-11-02T17:53:55.594Z,80.84
2022-11-02T17:58:58.509Z,81.57
2022-11-02T18:04:00.985Z,81.16
2022-11-02T18:09:14.051Z,81.29
2022-11-02T18:14:17.123Z,80.60
2022-11-02T18:19:19.809Z,81.02
2022-11-02T18:24:22.342Z,81.38
2022-11-02T18:29:25.102Z,81.66
2022-11-02T18:34:27.709Z,81.47
2022-11-02T18:39:30.359Z,82.18
2022-11-02T18:44:33.220Z,81.57
2022-11-02T18:49:35.722Z,81.84
2022-11-02T18:54:38.314Z,82.56
2022-11-02T18:59:41.072Z,81.94
2022-11-02T19:04:43.625Z,80.72
2022-11-02T19:09:46.541Z,81.85
2022-11-02T19:14:51.699Z,81.67
2022-11-02T19:19:54.635Z,81.89
2022-11-02T19:24:57.315Z,81.56
2022-11-02T19:30:00.148Z,82.18
2022-11-02T19:35:08.668Z,83.04
2022-11-02T19:40:12.089Z,82.66
2022-11-02T19:45:17.989Z,82.03
2022-11-02T19:50:24.980Z,82.13
2022-11-02T19:55:29.601Z,82.41
2022-11-02T20:00:32.379Z,82.56
2022-11-02T20:05:35.067Z,82.60
2022-11-02T20:10:37.559Z,82.76
2022-11-02T20:15:40.697Z,83.11
2022-11-02T20:20:43.376Z,82.99
2022-11-02T20:25:46.963Z,83.26
2022-11-02T20:30:49.679Z,82.97
2022-11-02T20:35:52.291Z,83.17
2022-11-02T20:40:54.972Z,82.92
2022-11-02T20:46:31.546Z,83.58
2022-11-02T20:51:29.475Z,82.54
2022-11-02T20:56:32.006Z,83.19
2022-11-02T21:01:35.329Z,83.28
2022-11-02T21:06:37.999Z,83.86
2022-11-02T21:11:59.026Z,83.13
2022-11-02T21:17:02.961Z,83.28
2022-11-02T21:22:05.635Z,83.17
2022-11-02T21:27:08.325Z,83.92
2022-11-02T21:32:11.018Z,83.32
2022-11-02T21:37:13.668Z,83.68
2022-11-02T21:42:16.188Z,83.72
2022-11-02T21:47:18.819Z,83.22
2022-11-02T21:52:21.345Z,84.05
2022-11-02T21:57:23.932Z,83.64
2022-11-02T22:02:26.659Z,83.21
2022-11-02T22:07:49.386Z,83.64
2022-11-02T22:13:10.324Z,83.52
2022-11-02T22:18:12.841Z,84.74
2022-11-02T22:23:15.370Z,84.12
2022-11-02T22:28:17.924Z,84.87
2022-11-02T22:33:20.626Z,85.36
2022-11-02T22:38:41.786Z,84.22
2022-11-02T22:43:44.377Z,83.58
2022-11-02T22:48:47.045Z,83.62
2022-11-02T22:53:50.277Z,84.03
2022-11-02T22:58:52.862Z,84.27
2022-11-02T23:03:56.034Z,83.83
2022-11-02T23:08:59.280Z,83.19
2022-11-02T23:14:10.921Z,83.67
2022-11-02T23:19:45.132Z,83.74
2022-11-02T23:25:11.963Z,83.41
2022-11-02T23:30:33.902Z,84.50
2022-11-02T23:35:55.055Z,84.01
2022-11-02T23:40:57.528Z,83.97
2022-11-02T23:46:00.053Z,84.57
2022-11-02T23:51:20.919Z,84.02
2022-11-02T23:56:42.208Z,84.01
